createdAt,value
2023-03-08T00:02:45.819Z,94330.19
2023-03-08T00:07:54.401Z,94342.94
2023-03-08T00:12:57.947Z,94349.81
2023-03-08T00:18:01.374Z,94346.56
2023-03-08T00:23:04.055Z,94357.94
2023-03-08T00:28:07.153Z,94352.88
2023-03-08T00:33:09.773Z,94343.28
2023-03-08T00:38:13.991Z,94349.91
2023-03-08T00:43:27.605Z,94339.53
2023-03-08T00:48:31.054Z,94345.06
2023-03-08T00:53:33.771Z,94337.38
2023-03-08T00:58:36.248Z,94346.38
2023-03-08T01:03:39.218Z,94352.22
2023-03-08T01:08:45.973Z,94352.19
2023-03-08T01:13:48.425Z,94346.09
2023-03-08T01:18:50.865Z,94337.81
2023-03-08T01:23:53.556Z,94327.41
2023-03-08T01:28:56.999Z,94335.34
2023-03-08T01:34:08.574Z,94345.88
2023-03-08T01:39:11.698Z,94332.59
2023-03-08T01:44:14.406Z,94347.72
2023-03-08T01:49:17.044Z,94338.09
2023-03-08T01:54:20.451Z,94333.56
2023-03-08T01:59:23.091Z,94321.50
2023-03-08T02:04:25.850Z,94312.25
2023-03-08T02:09:28.387Z,94309.03
2023-03-08T02:14:31.073Z,94300.75
2023-03-08T02:19:33.592Z,94308.06
2023-03-08T02:24:44.756Z,94304.91
2023-03-08T02:29:47.908Z,94293.94
2023-03-08T02:34:51.816Z,94298.97
2023-03-08T02:39:55.817Z,94290.00
2023-03-08T02:44:58.485Z,94278.84
2023-03-08T02:50:01.847Z,94277.00
2023-03-08T02:55:04.569Z,94276.72
2023-03-08T03:00:08.008Z,94273.28
2023-03-08T03:05:11.424Z,94278.28
2023-03-08T03:10:14.396Z,94273.53
2023-03-08T03:15:16.930Z,94279.31
2023-03-08T03:20:27.710Z,94263.13
2023-03-08T03:25:31.289Z,94265.03
2023-03-08T03:30:35.243Z,94255.50
2023-03-08T03:35:38.250Z,94263.41
2023-03-08T03:40:47.801Z,94252.81
2023-03-08T03:45:50.150Z,94248.78
2023-03-08T03:50:52.901Z,94240.59
2023-03-08T03:55:55.254Z,94238.50
2023-03-08T04:00:58.167Z,94244.59
2023-03-08T04:06:01.310Z,94239.47
2023-03-08T04:11:04.751Z,94237.81
2023-03-08T04:16:09.529Z,94236.47
2023-03-08T04:21:16.033Z,94233.13
2023-03-08T04:26:19.396Z,94216.72
2023-03-08T04:31:22.227Z,94211.53
2023-03-08T04:36:25.918Z,94201.06
2023-03-08T04:41:28.575Z,94214.91
2023-03-08T04:46:32.082Z,94196.44
2023-03-08T04:51:34.661Z,94192.22
2023-03-08T04:56:37.363Z,94169.72
2023-03-08T05:01:40.175Z,94177.41
2023-03-08T05:06:42.549Z,94172.38
2023-03-08T05:11:45.129Z,94164.19
2023-03-08T05:16:48.074Z,94151.47
2023-03-08T05:21:50.856Z,94142.47
2023-03-08T05:26:54.449Z,94130.81
2023-03-08T05:32:00.972Z,94130.81
2023-03-08T05:37:05.060Z,94131.13
2023-03-08T05:42:08.974Z,94130.31
2023-03-08T05:47:12.790Z,94112.84
2023-03-08T05:52:16.271Z,94114.44
2023-03-08T05:57:19.906Z,94103.88
2023-03-08T06:02:24.313Z,94113.94
2023-03-08T06:07:27.009Z,94106.00
2023-03-08T06:12:30.538Z,94105.75
2023-03-08T06:17:33.865Z,94103.66
2023-03-08T06:22:36.551Z,94111.88
2023-03-08T06:27:49.092Z,94108.16
2023-03-08T06:32:59.027Z,94111.09
2023-03-08T06:38:01.692Z,94109.16
2023-03-08T06:43:04.102Z,94125.78
2023-03-08T06:48:06.743Z,94114.66
2023-03-08T06:53:09.599Z,94117.03
2023-03-08T06:58:12.353Z,94115.09
2023-03-08T07:03:14.785Z,94121.75
2023-03-08T07:08:17.091Z,94115.63
2023-03-08T07:13:20.068Z,94119.28
2023-03-08T07:18:22.348Z,94116.63
2023-03-08T07:23:25.458Z,94132.47
2023-03-08T07:28:27.872Z,94143.28
2023-03-08T07:33:30.998Z,94131.56
2023-03-08T07:38:33.743Z,94119.25
2023-03-08T07:43:36.079Z,94117.78
2023-03-08T07:48:38.674Z,94121.09
2023-03-08T07:53:41.200Z,94112.13
2023-03-08T07:58:43.784Z,94105.53
2023-03-08T08:03:46.787Z,94089.56
2023-03-08T08:08:49.166Z,94062.44
2023-03-08T08:13:51.938Z,94064.69
2023-03-08T08:18:54.461Z,94048.97
2023-03-08T08:23:58.010Z,94043.91
2023-03-08T08:29:00.454Z,94023.75
2023-03-08T08:34:03.252Z,94013.34
2023-03-08T08:39:05.947Z,93994.31
2023-03-08T08:44:08.422Z,93970.13
2023-03-08T08:49:11.146Z,93957.50
2023-03-08T08:54:13.510Z,93940.19
2023-03-08T08:59:17.700Z,93929.28
2023-03-08T09:04:20.882Z,93924.66
2023-03-08T09:09:23.705Z,93921.22
2023-03-08T09:14:26.709Z,93920.19
2023-03-08T09:19:29.135Z,93907.03
2023-03-08T09:24:31.643Z,93892.00
2023-03-08T09:29:34.763Z,93885.44
2023-03-08T09:34:37.093Z,93886.72
2023-03-08T09:39:40.716Z,93878.13
2023-03-08T09:44:45.289Z,93859.34
2023-03-08T09:49:49.514Z,93871.03
2023-03-08T09:54:53.149Z,93870.97
2023-03-08T09:59:55.923Z,93856.88
2023-03-08T10:05:11.820Z,93847.44
2023-03-08T10:10:17.208Z,93851.22
2023-03-08T10:15:28.433Z,93851.94
2023-03-08T10:20:35.231Z,93856.81
2023-03-08T10:25:43.134Z,93846.97
2023-03-08T10:30:56.213Z,93855.31
2023-03-08T10:35:58.879Z,93871.41
2023-03-08T10:41:01.733Z,93871.91
2023-03-08T10:46:04.340Z,93888.81
2023-03-08T10:51:07.844Z,93884.53
2023-03-08T10:56:11.424Z,93887.69
2023-03-08T11:01:14.404Z,93881.88
2023-03-08T11:06:17.601Z,93889.81
2023-03-08T11:11:19.923Z,93892.34
2023-03-08T11:16:23.445Z,93888.38
2023-03-08T11:21:25.805Z,93874.47
2023-03-08T11:26:28.327Z,93873.38
2023-03-08T11:31:31.150Z,93858.31
2023-03-08T11:36:33.730Z,93849.13
2023-03-08T11:41:36.075Z,93824.50
2023-03-08T11:46:38.492Z,93802.28
2023-03-08T11:51:41.073Z,93778.84
2023-03-08T11:56:44.223Z,93763.09
2023-03-08T12:01:47.388Z,93774.31
2023-03-08T12:06:50.264Z,93761.47
2023-03-08T12:11:52.645Z,93759.19
2023-03-08T12:16:56.039Z,93751.44
2023-03-08T12:21:58.445Z,93749.81
2023-03-08T12:27:01.551Z,93748.31
2023-03-08T12:32:04.376Z,93749.63
2023-03-08T12:37:07.109Z,93732.84
2023-03-08T12:42:11.049Z,93742.28
2023-03-08T12:47:13.403Z,93729.53
2023-03-08T12:52:26.133Z,93729.06
2023-03-08T12:57:28.496Z,93738.06
2023-03-08T13:02:31.489Z,93731.75
2023-03-08T13:07:33.891Z,93730.00
2023-03-08T13:12:36.275Z,93735.34
2023-03-08T13:17:39.460Z,93728.34
2023-03-08T13:22:42.676Z,93714.34
2023-03-08T13:27:45.081Z,93739.09
2023-03-08T13:32:47.531Z,93714.69
2023-03-08T13:37:51.261Z,93721.09
2023-03-08T13:42:54.389Z,93716.81
2023-03-08T13:47:56.762Z,93725.03
2023-03-08T13:53:00.017Z,93737.22
2023-03-08T13:58:02.602Z,93734.28
2023-03-08T14:03:08.604Z,93727.38
2023-03-08T14:08:11.670Z,93718.16
2023-03-08T14:13:14.012Z,93730.25
2023-03-08T14:18:16.759Z,93717.66
2023-03-08T14:23:19.718Z,93732.69
2023-03-08T14:28:22.256Z,93707.16
2023-03-08T14:33:41.812Z,93694.53
2023-03-08T14:38:44.693Z,93709.44
2023-03-08T14:43:47.090Z,93693.13
2023-03-08T14:48:49.828Z,93707.28
2023-03-08T14:53:54.986Z,93692.38
2023-03-08T14:58:57.695Z,93674.44
2023-03-08T15:04:00.110Z,93668.03
2023-03-08T15:09:03.251Z,93655.75
2023-03-08T15:14:05.725Z,93650.41
2023-03-08T15:19:08.792Z,93636.09
2023-03-08T15:24:11.167Z,93631.88
2023-03-08T15:29:13.693Z,93626.53
2023-03-08T15:34:20.208Z,93634.13
2023-03-08T15:39:22.660Z,93627.56
2023-03-08T15:44:25.464Z,93616.81
2023-03-08T15:49:28.163Z,93620.53
2023-03-08T15:54:31.774Z,93608.00
2023-03-08T15:59:34.395Z,93592.06
2023-03-08T16:04:37.109Z,93599.47
2023-03-08T16:09:39.771Z,93596.63
2023-03-08T16:14:42.235Z,93584.78
2023-03-08T16:19:44.645Z,93588.59
2023-03-08T16:24:47.328Z,93575.22
2023-03-08T16:29:49.683Z,93577.66
2023-03-08T16:34:52.059Z,93573.69
2023-03-08T16:39:57.539Z,93570.63
2023-03-08T16:45:00.238Z,93575.69
2023-03-08T16:50:04.045Z,93568.66
2023-03-08T16:55:06.908Z,93569.81
2023-03-08T17:00:12.384Z,93564.06
2023-03-08T17:05:15.568Z,93570.25
2023-03-08T17:10:18.780Z,93579.16
2023-03-08T17:15:21.104Z,93583.59
2023-03-08T17:20:23.681Z,93574.81
2023-03-08T17:25:26.331Z,93577.78
2023-03-08T17:30:29.517Z,93593.38
2023-03-08T17:35:32.528Z,93603.63
2023-03-08T17:40:39.448Z,93614.84
2023-03-08T17:45:42.247Z,93620.38
2023-03-08T17:50:47.070Z,93626.03
2023-03-08T17:55:49.822Z,93611.66
2023-03-08T18:00:52.659Z,93604.06
2023-03-08T18:05:55.770Z,93614.50
2023-03-08T18:10:58.591Z,93621.31
2023-03-08T18:16:03.494Z,93621.78
2023-03-08T18:21:13.258Z,93618.81
2023-03-08T18:26:17.117Z,93626.25
2023-03-08T18:31:20.303Z,93638.41
2023-03-08T18:36:23.466Z,93638.72
2023-03-08T18:41:27.170Z,93644.22
2023-03-08T18:46:30.337Z,93652.25
2023-03-08T18:51:32.665Z,93653.03
2023-03-08T18:56:35.435Z,93646.44
2023-03-08T19:01:37.880Z,93647.09
2023-03-08T19:06:40.368Z,93656.88
2023-03-08T19:11:43.298Z,93669.03
2023-03-08T19:16:45.895Z,93682.00
2023-03-08T19:21:48.867Z,93694.19
2023-03-08T19:26:53.186Z,93726.69
2023-03-08T19:31:55.652Z,93745.28
2023-03-08T19:36:58.122Z,93716.94
2023-03-08T19:42:00.858Z,93744.72
2023-03-08T19:47:04.537Z,93744.16
2023-03-08T19:52:07.260Z,93753.59
2023-03-08T19:57:10.238Z,93756.56
2023-03-08T20:02:12.614Z,93769.44
2023-03-08T20:07:14.933Z,93749.31
2023-03-08T20:12:17.428Z,93758.47
2023-03-08T20:17:19.756Z,93761.47
2023-03-08T20:22:23.876Z,93763.34
2023-03-08T20:27:26.997Z,93776.81
2023-03-08T20:32:30.642Z,93790.66
2023-03-08T20:37:33.078Z,93763.13
2023-03-08T20:42:37.307Z,93754.28
2023-03-08T20:47:40.859Z,93752.19
2023-03-08T20:52:46.376Z,93760.19
2023-03-08T20:57:51.469Z,93751.88
2023-03-08T21:02:56.060Z,93745.31
2023-03-08T21:07:58.976Z,93735.06
2023-03-08T21:13:01.412Z,93722.47
2023-03-08T21:18:03.888Z,93711.53
2023-03-08T21:23:06.989Z,93703.19
2023-03-08T21:28:09.701Z,93692.88
2023-03-08T21:33:12.831Z,93697.81
2023-03-08T21:38:15.189Z,93693.25
2023-03-08T21:43:17.501Z,93690.09
2023-03-08T21:48:21.275Z,93688.53
2023-03-08T21:53:23.637Z,93680.78
2023-03-08T21:58:27.212Z,93675.06
2023-03-08T22:03:31.303Z,93676.06
2023-03-08T22:08:35.711Z,93671.97
2023-03-08T22:13:39.000Z,93662.38
2023-03-08T22:18:41.566Z,93664.16
2023-03-08T22:23:46.189Z,93659.00
2023-03-08T22:28:48.961Z,93646.59
2023-03-08T22:33:51.987Z,93633.00
2023-03-08T22:38:55.446Z,93635.38
2023-03-08T22:43:58.257Z,93618.97
2023-03-08T22:49:04.880Z,93618.22
2023-03-08T22:54:08.005Z,93618.94
2023-03-08T22:59:10.395Z,93610.19
2023-03-08T23:04:13.212Z,93608.75
2023-03-08T23:09:15.555Z,93604.19
2023-03-08T23:14:18.290Z,93602.75
2023-03-08T23:19:20.664Z,93606.06
2023-03-08T23:24:24.250Z,93606.31
2023-03-08T23:29:26.670Z,93608.00
2023-03-08T23:34:29.112Z,93608.00
2023-03-08T23:39:31.571Z,93607.97
2023-03-08T23:44:34.332Z,93604.84
2023-03-08T23:49:36.844Z,93610.63
2023-03-08T23:54:39.208Z,93598.53
2023-03-08T23:59:41.616Z,93613.22
